Overview Statistics Trail Chart Weather Telemetry Raw packets
 

This is the latest recevied weather packets stored in our database for station/object K7SKM. If no packets are shown the sender has not sent any weather packets the latest 10 day(s).

<< 66 67 68 69 70 71 72 >>
Time Temp. Humidity Pressure Rain* Wind** Luminosity Snow
1788213647 23.89° C 49% 1014.1 hPa 0 mm - 85 W/m² -
1788213342 23.89° C 49% 1014.3 hPa 0 mm - 68 W/m² -
1788213038 23.89° C 49% 1014.5 hPa 0 mm - 68 W/m² -
1788212735 23.89° C 49% 1014.4 hPa 0 mm - 124 W/m² -
1788212431 24.44° C 49% 1014.3 hPa 0 mm - 73 W/m² -
1788212127 24.44° C 51% 1014.3 hPa 0 mm - 83 W/m² -
1788211822 23.89° C 50% 1014.4 hPa 0 mm - 99 W/m² -
1788211518 23.89° C 50% 1014.5 hPa 0 mm - 124 W/m² -
1788211214 23.33° C 51% 1014.5 hPa 0 mm - 235 W/m² -
1788210908 23.89° C 50% 1014.5 hPa 0 mm - 176 W/m² -
1788210607 23.33° C 50% 1014.8 hPa 0 mm - 239 W/m² -
1788210303 23.89° C 50% 1014.8 hPa 0 mm - 221 W/m² -
1788209998 23.89° C 51% 1014.7 hPa 0 mm - 143 W/m² -
1788209693 23.89° C 49% 1014.9 hPa 0 mm - 364 W/m² -
1788209389 25° C 46% 1014.8 hPa 0 mm - 409 W/m² -
1788209089 25° C 47% 1015.1 hPa 0 mm - 398 W/m² -
1788208788 25° C 45% 1015.1 hPa 0 mm - 342 W/m² -
1788208483 25° C 45% 1015.2 hPa 0 mm - 406 W/m² -
1788208180 25° C 47% 1014.9 hPa 0 mm - 404 W/m² -
1788207876 23.89° C 49% 1015 hPa 0 mm - 399 W/m² -
1788207570 22.78° C 50% 1015.2 hPa 0 mm - 394 W/m² -
1788207268 23.33° C 48% 1015.3 hPa 0 mm - 406 W/m² -
1788206965 24.44° C 47% 1015.5 hPa 0 mm - 409 W/m² -
1788206664 24.44° C 47% 1015.6 hPa 0 mm - 404 W/m² -
1788206359 23.89° C 49% 1015.6 hPa 0 mm - 405 W/m² -

* Rain latest hour (hover to see other rain measurements)
** Current wind speed in m/s (hover to see current wind gust speed)